Terminal Aerodrome Forecast
Issued by NWS Lake Charles, LA

Home | Current Version | Previous Version | Text Only | Print | Product List | Glossary On
Versions: 1 2 3 4 5 6 7 8 9 10 11 12 13 14
000
FTUS44 KLCH 242334
TAFARA
TAF
KARA 242334Z 2500/2524 03008KT P6SM VCTS SCT025CB BKN040
     FM250100 04003KT P6SM SCT025 BKN200
     FM251800 05006KT P6SM VCTS SCT025CB BKN050=

USA.gov is the U.S. government's official web portal to all federal, state and local government web resources and services.